sensor_id;sensor_type;location;lat;lon;timestamp;P1;durP1;ratioP1;P2;durP2;ratioP2
41946;SDS011;27638;42.184;24.848;2023-04-10T00:00:49;7.22;;;4.78;;
41946;SDS011;27638;42.184;24.848;2023-04-10T00:03:21;7.82;;;4.88;;
41946;SDS011;27638;42.184;24.848;2023-04-10T00:05:47;14.05;;;7.38;;
41946;SDS011;27638;42.184;24.848;2023-04-10T00:08:13;7.53;;;5.32;;
41946;SDS011;27638;42.184;24.848;2023-04-10T00:10:38;8.77;;;4.75;;
41946;SDS011;27638;42.184;24.848;2023-04-10T00:13:04;8.75;;;6.18;;
41946;SDS011;27638;42.184;24.848;2023-04-10T00:15:29;8.60;;;5.70;;
41946;SDS011;27638;42.184;24.848;2023-04-10T00:17:55;6.57;;;5.30;;
41946;SDS011;27638;42.184;24.848;2023-04-10T00:20:21;8.48;;;5.88;;
41946;SDS011;27638;42.184;24.848;2023-04-10T00:22:47;14.35;;;6.55;;
41946;SDS011;27638;42.184;24.848;2023-04-10T00:25:13;7.40;;;5.28;;
41946;SDS011;27638;42.184;24.848;2023-04-10T00:27:38;8.70;;;5.88;;
41946;SDS011;27638;42.184;24.848;2023-04-10T00:30:04;9.15;;;5.95;;
41946;SDS011;27638;42.184;24.848;2023-04-10T00:32:30;8.63;;;5.80;;
41946;SDS011;27638;42.184;24.848;2023-04-10T00:34:55;9.00;;;5.68;;
41946;SDS011;27638;42.184;24.848;2023-04-10T00:37:21;8.07;;;5.78;;
41946;SDS011;27638;42.184;24.848;2023-04-10T00:39:46;9.75;;;5.85;;
41946;SDS011;27638;42.184;24.848;2023-04-10T00:42:12;8.50;;;5.55;;
41946;SDS011;27638;42.184;24.848;2023-04-10T00:44:37;10.48;;;5.75;;
41946;SDS011;27638;42.184;24.848;2023-04-10T00:47:03;7.55;;;5.18;;
41946;SDS011;27638;42.184;24.848;2023-04-10T00:49:29;8.18;;;6.07;;
41946;SDS011;27638;42.184;24.848;2023-04-10T00:51:55;10.18;;;6.28;;
41946;SDS011;27638;42.184;24.848;2023-04-10T00:54:21;9.27;;;5.78;;
41946;SDS011;27638;42.184;24.848;2023-04-10T00:56:47;8.77;;;6.05;;
41946;SDS011;27638;42.184;24.848;2023-04-10T00:59:14;7.10;;;4.88;;
41946;SDS011;27638;42.184;24.848;2023-04-10T01:01:40;10.38;;;6.28;;
41946;SDS011;27638;42.184;24.848;2023-04-10T01:04:06;9.75;;;6.22;;
41946;SDS011;27638;42.184;24.848;2023-04-10T01:11:53;11.23;;;6.38;;
41946;SDS011;27638;42.184;24.848;2023-04-10T01:17:00;20.92;;;10.23;;
41946;SDS011;27638;42.184;24.848;2023-04-10T01:19:43;75.78;;;29.55;;
41946;SDS011;27638;42.184;24.848;2023-04-10T01:22:25;24.50;;;11.65;;
41946;SDS011;27638;42.184;24.848;2023-04-10T01:25:14;15.85;;;8.63;;
41946;SDS011;27638;42.184;24.848;2023-04-10T01:28:02;10.88;;;6.63;;
41946;SDS011;27638;42.184;24.848;2023-04-10T01:30:35;9.40;;;6.13;;
41946;SDS011;27638;42.184;24.848;2023-04-10T01:33:01;11.88;;;6.88;;
41946;SDS011;27638;42.184;24.848;2023-04-10T01:35:29;12.57;;;6.50;;
41946;SDS011;27638;42.184;24.848;2023-04-10T01:37:59;11.43;;;7.40;;
41946;SDS011;27638;42.184;24.848;2023-04-10T01:40:26;14.68;;;8.32;;
41946;SDS011;27638;42.184;24.848;2023-04-10T01:42:54;22.17;;;11.90;;
41946;SDS011;27638;42.184;24.848;2023-04-10T01:45:22;24.33;;;10.60;;
41946;SDS011;27638;42.184;24.848;2023-04-10T01:47:52;23.50;;;11.38;;
41946;SDS011;27638;42.184;24.848;2023-04-10T01:50:19;12.00;;;7.00;;
41946;SDS011;27638;42.184;24.848;2023-04-10T01:52:47;21.95;;;10.45;;
41946;SDS011;27638;42.184;24.848;2023-04-10T01:55:15;11.18;;;6.68;;
41946;SDS011;27638;42.184;24.848;2023-04-10T01:57:41;12.73;;;7.03;;
41946;SDS011;27638;42.184;24.848;2023-04-10T02:00:07;15.27;;;8.77;;
41946;SDS011;27638;42.184;24.848;2023-04-10T02:02:33;11.05;;;6.95;;
41946;SDS011;27638;42.184;24.848;2023-04-10T02:04:59;14.43;;;7.60;;
41946;SDS011;27638;42.184;24.848;2023-04-10T02:13:00;20.38;;;11.20;;
41946;SDS011;27638;42.184;24.848;2023-04-10T02:15:29;12.05;;;6.82;;
41946;SDS011;27638;42.184;24.848;2023-04-10T02:17:57;12.07;;;6.78;;
41946;SDS011;27638;42.184;24.848;2023-04-10T02:20:24;11.43;;;6.90;;
41946;SDS011;27638;42.184;24.848;2023-04-10T02:22:50;12.50;;;7.97;;
41946;SDS011;27638;42.184;24.848;2023-04-10T02:25:17;23.98;;;11.20;;
41946;SDS011;27638;42.184;24.848;2023-04-10T02:27:43;19.75;;;9.63;;
41946;SDS011;27638;42.184;24.848;2023-04-10T02:30:09;11.30;;;6.65;;
41946;SDS011;27638;42.184;24.848;2023-04-10T02:32:35;15.77;;;8.88;;
41946;SDS011;27638;42.184;24.848;2023-04-10T02:35:00;11.50;;;6.75;;
41946;SDS011;27638;42.184;24.848;2023-04-10T02:37:27;30.02;;;15.02;;
41946;SDS011;27638;42.184;24.848;2023-04-10T02:39:53;25.00;;;12.25;;
41946;SDS011;27638;42.184;24.848;2023-04-10T02:42:21;17.63;;;9.48;;
41946;SDS011;27638;42.184;24.848;2023-04-10T02:44:47;15.00;;;9.50;;
41946;SDS011;27638;42.184;24.848;2023-04-10T02:47:13;15.15;;;9.07;;
41946;SDS011;27638;42.184;24.848;2023-04-10T02:49:39;20.52;;;10.55;;
41946;SDS011;27638;42.184;24.848;2023-04-10T02:52:05;16.73;;;9.63;;
41946;SDS011;27638;42.184;24.848;2023-04-10T02:54:31;13.90;;;8.30;;
41946;SDS011;27638;42.184;24.848;2023-04-10T02:56:56;13.35;;;7.90;;
41946;SDS011;27638;42.184;24.848;2023-04-10T02:59:22;14.13;;;8.43;;
41946;SDS011;27638;42.184;24.848;2023-04-10T03:01:48;10.80;;;7.43;;
41946;SDS011;27638;42.184;24.848;2023-04-10T03:04:14;12.50;;;7.35;;
41946;SDS011;27638;42.184;24.848;2023-04-10T03:06:40;11.38;;;7.53;;
41946;SDS011;27638;42.184;24.848;2023-04-10T03:09:05;14.65;;;7.40;;
41946;SDS011;27638;42.184;24.848;2023-04-10T03:11:31;13.25;;;7.03;;
41946;SDS011;27638;42.184;24.848;2023-04-10T03:13:56;11.32;;;7.38;;
41946;SDS011;27638;42.184;24.848;2023-04-10T03:16:22;12.85;;;7.28;;
41946;SDS011;27638;42.184;24.848;2023-04-10T03:18:48;12.77;;;7.15;;
41946;SDS011;27638;42.184;24.848;2023-04-10T03:21:13;12.15;;;7.05;;
41946;SDS011;27638;42.184;24.848;2023-04-10T03:23:39;11.98;;;7.50;;
41946;SDS011;27638;42.184;24.848;2023-04-10T03:26:04;11.27;;;6.53;;
41946;SDS011;27638;42.184;24.848;2023-04-10T03:28:30;13.65;;;8.07;;
41946;SDS011;27638;42.184;24.848;2023-04-10T03:30:57;12.40;;;7.53;;
41946;SDS011;27638;42.184;24.848;2023-04-10T03:33:22;16.15;;;8.05;;
41946;SDS011;27638;42.184;24.848;2023-04-10T03:35:48;14.60;;;8.27;;
41946;SDS011;27638;42.184;24.848;2023-04-10T03:38:14;14.82;;;7.65;;
41946;SDS011;27638;42.184;24.848;2023-04-10T03:40:40;15.07;;;7.55;;
41946;SDS011;27638;42.184;24.848;2023-04-10T03:43:05;11.25;;;7.20;;
41946;SDS011;27638;42.184;24.848;2023-04-10T03:45:31;12.07;;;7.82;;
41946;SDS011;27638;42.184;24.848;2023-04-10T03:47:57;13.82;;;7.72;;
41946;SDS011;27638;42.184;24.848;2023-04-10T03:50:23;14.93;;;8.13;;
41946;SDS011;27638;42.184;24.848;2023-04-10T03:52:48;14.10;;;8.82;;
41946;SDS011;27638;42.184;24.848;2023-04-10T03:55:15;20.45;;;9.75;;
41946;SDS011;27638;42.184;24.848;2023-04-10T03:57:44;22.33;;;9.85;;
41946;SDS011;27638;42.184;24.848;2023-04-10T04:00:13;14.55;;;7.90;;
41946;SDS011;27638;42.184;24.848;2023-04-10T04:02:39;15.68;;;8.50;;
41946;SDS011;27638;42.184;24.848;2023-04-10T04:05:05;12.43;;;7.78;;
41946;SDS011;27638;42.184;24.848;2023-04-10T04:07:31;15.55;;;8.43;;
41946;SDS011;27638;42.184;24.848;2023-04-10T04:09:57;12.45;;;7.65;;
41946;SDS011;27638;42.184;24.848;2023-04-10T04:12:23;12.63;;;7.90;;
41946;SDS011;27638;42.184;24.848;2023-04-10T04:14:48;12.98;;;7.60;;
41946;SDS011;27638;42.184;24.848;2023-04-10T04:17:13;12.98;;;8.02;;
41946;SDS011;27638;42.184;24.848;2023-04-10T04:19:39;13.13;;;6.75;;
41946;SDS011;27638;42.184;24.848;2023-04-10T04:22:04;19.48;;;9.25;;
41946;SDS011;27638;42.184;24.848;2023-04-10T04:24:30;22.52;;;11.50;;
41946;SDS011;27638;42.184;24.848;2023-04-10T04:26:55;16.48;;;9.35;;
41946;SDS011;27638;42.184;24.848;2023-04-10T04:29:21;13.57;;;8.75;;
41946;SDS011;27638;42.184;24.848;2023-04-10T04:31:47;13.77;;;7.97;;
41946;SDS011;27638;42.184;24.848;2023-04-10T04:34:12;14.27;;;7.68;;
41946;SDS011;27638;42.184;24.848;2023-04-10T04:36:38;14.57;;;8.65;;
41946;SDS011;27638;42.184;24.848;2023-04-10T04:39:03;14.48;;;7.70;;
41946;SDS011;27638;42.184;24.848;2023-04-10T04:41:29;15.00;;;9.02;;
41946;SDS011;27638;42.184;24.848;2023-04-10T04:43:56;15.98;;;8.77;;
41946;SDS011;27638;42.184;24.848;2023-04-10T04:46:22;14.98;;;8.20;;
41946;SDS011;27638;42.184;24.848;2023-04-10T04:48:47;16.60;;;8.48;;
41946;SDS011;27638;42.184;24.848;2023-04-10T04:51:13;13.95;;;8.70;;
41946;SDS011;27638;42.184;24.848;2023-04-10T04:53:38;20.25;;;9.38;;
41946;SDS011;27638;42.184;24.848;2023-04-10T04:56:04;17.50;;;10.23;;
41946;SDS011;27638;42.184;24.848;2023-04-10T04:58:30;22.10;;;10.95;;
41946;SDS011;27638;42.184;24.848;2023-04-10T05:00:55;19.02;;;10.63;;
41946;SDS011;27638;42.184;24.848;2023-04-10T05:03:21;19.50;;;10.38;;
41946;SDS011;27638;42.184;24.848;2023-04-10T05:05:46;19.65;;;10.13;;
41946;SDS011;27638;42.184;24.848;2023-04-10T05:08:12;17.70;;;10.00;;
41946;SDS011;27638;42.184;24.848;2023-04-10T05:10:37;19.45;;;10.23;;
41946;SDS011;27638;42.184;24.848;2023-04-10T05:13:03;18.08;;;10.10;;
41946;SDS011;27638;42.184;24.848;2023-04-10T05:15:28;17.85;;;9.73;;
41946;SDS011;27638;42.184;24.848;2023-04-10T05:17:53;15.10;;;9.02;;
41946;SDS011;27638;42.184;24.848;2023-04-10T05:20:19;17.15;;;9.20;;
41946;SDS011;27638;42.184;24.848;2023-04-10T05:22:45;14.88;;;8.93;;
41946;SDS011;27638;42.184;24.848;2023-04-10T05:25:11;16.95;;;10.10;;
41946;SDS011;27638;42.184;24.848;2023-04-10T05:27:37;14.93;;;9.40;;
41946;SDS011;27638;42.184;24.848;2023-04-10T05:30:02;17.85;;;9.73;;
41946;SDS011;27638;42.184;24.848;2023-04-10T05:32:28;13.93;;;9.23;;
41946;SDS011;27638;42.184;24.848;2023-04-10T05:34:53;17.13;;;10.15;;
41946;SDS011;27638;42.184;24.848;2023-04-10T05:37:19;18.15;;;10.02;;
41946;SDS011;27638;42.184;24.848;2023-04-10T05:39:44;15.88;;;10.25;;
41946;SDS011;27638;42.184;24.848;2023-04-10T05:42:10;16.20;;;9.48;;
41946;SDS011;27638;42.184;24.848;2023-04-10T05:44:35;14.32;;;9.23;;
41946;SDS011;27638;42.184;24.848;2023-04-10T05:47:01;14.10;;;9.48;;
41946;SDS011;27638;42.184;24.848;2023-04-10T05:49:26;15.13;;;9.48;;
41946;SDS011;27638;42.184;24.848;2023-04-10T05:51:52;15.85;;;9.48;;
41946;SDS011;27638;42.184;24.848;2023-04-10T05:54:17;16.10;;;10.10;;
41946;SDS011;27638;42.184;24.848;2023-04-10T05:56:43;15.70;;;9.20;;
41946;SDS011;27638;42.184;24.848;2023-04-10T05:59:09;13.35;;;9.38;;
41946;SDS011;27638;42.184;24.848;2023-04-10T06:01:36;16.60;;;9.57;;
41946;SDS011;27638;42.184;24.848;2023-04-10T06:04:01;15.93;;;8.77;;
41946;SDS011;27638;42.184;24.848;2023-04-10T06:06:27;13.88;;;8.80;;
41946;SDS011;27638;42.184;24.848;2023-04-10T06:08:53;13.75;;;9.57;;
41946;SDS011;27638;42.184;24.848;2023-04-10T06:11:19;15.13;;;9.57;;
41946;SDS011;27638;42.184;24.848;2023-04-10T06:13:45;15.57;;;9.60;;
41946;SDS011;27638;42.184;24.848;2023-04-10T06:16:11;13.45;;;9.18;;
41946;SDS011;27638;42.184;24.848;2023-04-10T06:18:39;15.13;;;9.00;;
41946;SDS011;27638;42.184;24.848;2023-04-10T06:21:04;14.35;;;8.85;;
41946;SDS011;27638;42.184;24.848;2023-04-10T06:23:30;19.65;;;9.75;;
41946;SDS011;27638;42.184;24.848;2023-04-10T06:25:55;16.15;;;9.35;;
41946;SDS011;27638;42.184;24.848;2023-04-10T06:28:21;20.15;;;10.57;;
41946;SDS011;27638;42.184;24.848;2023-04-10T06:30:46;13.02;;;9.45;;
41946;SDS011;27638;42.184;24.848;2023-04-10T06:33:12;15.82;;;9.30;;
41946;SDS011;27638;42.184;24.848;2023-04-10T06:35:37;14.02;;;7.93;;
41946;SDS011;27638;42.184;24.848;2023-04-10T06:38:03;13.80;;;8.02;;
41946;SDS011;27638;42.184;24.848;2023-04-10T06:40:28;11.27;;;7.40;;
41946;SDS011;27638;42.184;24.848;2023-04-10T06:42:55;9.13;;;6.78;;
41946;SDS011;27638;42.184;24.848;2023-04-10T06:45:20;9.13;;;6.68;;
41946;SDS011;27638;42.184;24.848;2023-04-10T06:47:46;14.13;;;7.38;;
41946;SDS011;27638;42.184;24.848;2023-04-10T06:50:12;9.40;;;6.25;;
41946;SDS011;27638;42.184;24.848;2023-04-10T06:52:37;6.82;;;4.93;;
41946;SDS011;27638;42.184;24.848;2023-04-10T06:55:03;9.25;;;6.45;;
41946;SDS011;27638;42.184;24.848;2023-04-10T06:57:28;6.40;;;4.68;;
41946;SDS011;27638;42.184;24.848;2023-04-10T06:59:54;5.88;;;4.78;;
41946;SDS011;27638;42.184;24.848;2023-04-10T07:02:20;6.45;;;4.63;;
41946;SDS011;27638;42.184;24.848;2023-04-10T07:04:45;6.53;;;4.47;;
41946;SDS011;27638;42.184;24.848;2023-04-10T07:07:11;7.28;;;5.07;;
41946;SDS011;27638;42.184;24.848;2023-04-10T07:09:37;4.80;;;4.20;;
41946;SDS011;27638;42.184;24.848;2023-04-10T07:12:05;6.45;;;4.90;;
41946;SDS011;27638;42.184;24.848;2023-04-10T07:14:31;5.47;;;4.70;;
41946;SDS011;27638;42.184;24.848;2023-04-10T07:16:58;7.53;;;5.22;;
41946;SDS011;27638;42.184;24.848;2023-04-10T07:19:24;6.60;;;5.35;;
41946;SDS011;27638;42.184;24.848;2023-04-10T07:21:50;7.90;;;4.90;;
41946;SDS011;27638;42.184;24.848;2023-04-10T07:24:15;5.80;;;4.82;;
41946;SDS011;27638;42.184;24.848;2023-04-10T07:26:42;8.85;;;4.88;;
41946;SDS011;27638;42.184;24.848;2023-04-10T07:29:08;6.25;;;4.18;;
41946;SDS011;27638;42.184;24.848;2023-04-10T07:31:34;6.18;;;4.60;;
41946;SDS011;27638;42.184;24.848;2023-04-10T07:34:00;5.38;;;4.43;;
41946;SDS011;27638;42.184;24.848;2023-04-10T07:36:26;5.70;;;4.25;;
41946;SDS011;27638;42.184;24.848;2023-04-10T07:38:51;6.20;;;4.43;;
41946;SDS011;27638;42.184;24.848;2023-04-10T07:41:17;5.82;;;4.38;;
41946;SDS011;27638;42.184;24.848;2023-04-10T07:43:42;5.55;;;4.40;;
41946;SDS011;27638;42.184;24.848;2023-04-10T07:46:08;3.80;;;3.15;;
41946;SDS011;27638;42.184;24.848;2023-04-10T07:48:33;4.55;;;3.75;;
41946;SDS011;27638;42.184;24.848;2023-04-10T07:50:59;4.90;;;3.83;;
41946;SDS011;27638;42.184;24.848;2023-04-10T07:53:24;4.65;;;3.67;;
41946;SDS011;27638;42.184;24.848;2023-04-10T07:55:51;7.00;;;3.65;;
41946;SDS011;27638;42.184;24.848;2023-04-10T07:58:17;4.57;;;4.03;;
41946;SDS011;27638;42.184;24.848;2023-04-10T08:00:42;4.53;;;3.90;;
41946;SDS011;27638;42.184;24.848;2023-04-10T08:03:10;4.40;;;3.70;;
41946;SDS011;27638;42.184;24.848;2023-04-10T08:05:36;3.45;;;3.15;;
41946;SDS011;27638;42.184;24.848;2023-04-10T08:08:02;3.42;;;3.08;;
41946;SDS011;27638;42.184;24.848;2023-04-10T08:10:27;4.63;;;3.00;;
41946;SDS011;27638;42.184;24.848;2023-04-10T08:12:53;4.32;;;3.05;;
41946;SDS011;27638;42.184;24.848;2023-04-10T08:15:18;4.50;;;2.90;;
41946;SDS011;27638;42.184;24.848;2023-04-10T08:17:43;3.85;;;2.70;;
41946;SDS011;27638;42.184;24.848;2023-04-10T08:20:10;3.72;;;3.20;;
41946;SDS011;27638;42.184;24.848;2023-04-10T08:22:36;4.13;;;3.15;;
41946;SDS011;27638;42.184;24.848;2023-04-10T08:25:01;3.05;;;2.72;;
41946;SDS011;27638;42.184;24.848;2023-04-10T08:27:27;4.40;;;3.08;;
41946;SDS011;27638;42.184;24.848;2023-04-10T08:29:54;4.10;;;3.00;;
41946;SDS011;27638;42.184;24.848;2023-04-10T08:32:20;4.75;;;2.50;;
41946;SDS011;27638;42.184;24.848;2023-04-10T08:34:45;3.60;;;2.70;;
41946;SDS011;27638;42.184;24.848;2023-04-10T08:37:10;2.80;;;2.50;;
41946;SDS011;27638;42.184;24.848;2023-04-10T08:39:39;4.75;;;2.53;;
41946;SDS011;27638;42.184;24.848;2023-04-10T08:42:05;3.47;;;2.70;;
41946;SDS011;27638;42.184;24.848;2023-04-10T08:44:31;4.35;;;2.38;;
41946;SDS011;27638;42.184;24.848;2023-04-10T08:46:57;3.75;;;2.42;;
41946;SDS011;27638;42.184;24.848;2023-04-10T08:49:28;4.20;;;2.63;;
41946;SDS011;27638;42.184;24.848;2023-04-10T08:52:03;3.13;;;2.50;;
41946;SDS011;27638;42.184;24.848;2023-04-10T08:54:32;2.50;;;2.30;;
41946;SDS011;27638;42.184;24.848;2023-04-10T08:57:01;7.47;;;2.60;;
41946;SDS011;27638;42.184;24.848;2023-04-10T08:59:29;2.97;;;2.25;;
41946;SDS011;27638;42.184;24.848;2023-04-10T09:01:55;3.83;;;2.33;;
41946;SDS011;27638;42.184;24.848;2023-04-10T09:04:21;4.85;;;2.97;;
41946;SDS011;27638;42.184;24.848;2023-04-10T09:06:48;3.55;;;2.53;;
41946;SDS011;27638;42.184;24.848;2023-04-10T09:09:14;5.47;;;3.25;;
41946;SDS011;27638;42.184;24.848;2023-04-10T09:14:20;2.78;;;2.05;;
41946;SDS011;27638;42.184;24.848;2023-04-10T09:16:49;3.28;;;2.50;;
41946;SDS011;27638;42.184;24.848;2023-04-10T09:19:28;3.80;;;2.50;;
41946;SDS011;27638;42.184;24.848;2023-04-10T09:21:54;4.15;;;2.25;;
41946;SDS011;27638;42.184;24.848;2023-04-10T09:24:21;4.25;;;2.53;;
41946;SDS011;27638;42.184;24.848;2023-04-10T09:26:50;3.08;;;2.63;;
41946;SDS011;27638;42.184;24.848;2023-04-10T09:29:16;3.70;;;2.30;;
41946;SDS011;27638;42.184;24.848;2023-04-10T09:31:43;2.85;;;2.38;;
41946;SDS011;27638;42.184;24.848;2023-04-10T09:34:18;4.20;;;2.20;;
41946;SDS011;27638;42.184;24.848;2023-04-10T09:39:37;3.55;;;2.75;;
41946;SDS011;27638;42.184;24.848;2023-04-10T09:42:09;2.22;;;2.03;;
41946;SDS011;27638;42.184;24.848;2023-04-10T09:44:39;3.22;;;2.58;;
41946;SDS011;27638;42.184;24.848;2023-04-10T09:47:15;3.42;;;2.50;;
41946;SDS011;27638;42.184;24.848;2023-04-10T09:49:45;3.53;;;2.65;;
41946;SDS011;27638;42.184;24.848;2023-04-10T09:54:42;3.88;;;2.28;;
41946;SDS011;27638;42.184;24.848;2023-04-10T09:57:07;2.53;;;2.30;;
41946;SDS011;27638;42.184;24.848;2023-04-10T09:59:35;4.00;;;2.63;;
41946;SDS011;27638;42.184;24.848;2023-04-10T10:02:02;4.65;;;2.60;;
41946;SDS011;27638;42.184;24.848;2023-04-10T10:04:28;3.10;;;2.28;;
41946;SDS011;27638;42.184;24.848;2023-04-10T10:06:54;4.28;;;2.80;;
41946;SDS011;27638;42.184;24.848;2023-04-10T10:09:20;3.80;;;2.70;;
41946;SDS011;27638;42.184;24.848;2023-04-10T10:11:45;4.85;;;3.25;;
41946;SDS011;27638;42.184;24.848;2023-04-10T10:14:15;4.95;;;2.70;;
41946;SDS011;27638;42.184;24.848;2023-04-10T10:16:50;4.05;;;2.78;;
41946;SDS011;27638;42.184;24.848;2023-04-10T10:19:22;5.22;;;3.22;;
41946;SDS011;27638;42.184;24.848;2023-04-10T10:21:48;5.70;;;3.60;;
41946;SDS011;27638;42.184;24.848;2023-04-10T10:24:15;4.43;;;3.10;;
41946;SDS011;27638;42.184;24.848;2023-04-10T10:26:44;4.63;;;2.88;;
41946;SDS011;27638;42.184;24.848;2023-04-10T10:29:11;4.38;;;3.42;;
41946;SDS011;27638;42.184;24.848;2023-04-10T10:31:41;4.30;;;2.90;;
41946;SDS011;27638;42.184;24.848;2023-04-10T10:34:07;7.00;;;4.03;;
41946;SDS011;27638;42.184;24.848;2023-04-10T10:36:38;4.78;;;3.75;;
41946;SDS011;27638;42.184;24.848;2023-04-10T10:42:21;3.80;;;2.97;;
41946;SDS011;27638;42.184;24.848;2023-04-10T10:45:07;4.20;;;2.88;;
41946;SDS011;27638;42.184;24.848;2023-04-10T10:47:33;4.93;;;3.20;;
41946;SDS011;27638;42.184;24.848;2023-04-10T10:50:06;3.92;;;3.45;;
41946;SDS011;27638;42.184;24.848;2023-04-10T10:58:08;5.65;;;2.75;;
41946;SDS011;27638;42.184;24.848;2023-04-10T11:16:01;5.97;;;3.55;;
41946;SDS011;27638;42.184;24.848;2023-04-10T11:21:10;5.18;;;3.90;;
41946;SDS011;27638;42.184;24.848;2023-04-10T11:28:59;5.40;;;3.50;;
41946;SDS011;27638;42.184;24.848;2023-04-10T11:31:38;4.55;;;3.17;;
41946;SDS011;27638;42.184;24.848;2023-04-10T11:36:36;3.90;;;3.17;;
41946;SDS011;27638;42.184;24.848;2023-04-10T11:39:04;5.05;;;3.17;;
41946;SDS011;27638;42.184;24.848;2023-04-10T11:41:35;6.20;;;3.50;;
41946;SDS011;27638;42.184;24.848;2023-04-10T11:44:03;4.93;;;3.08;;
41946;SDS011;27638;42.184;24.848;2023-04-10T11:46:35;3.50;;;2.90;;
41946;SDS011;27638;42.184;24.848;2023-04-10T11:49:11;4.03;;;2.83;;
41946;SDS011;27638;42.184;24.848;2023-04-10T11:51:43;5.00;;;3.40;;
41946;SDS011;27638;42.184;24.848;2023-04-10T11:54:11;3.80;;;3.33;;
41946;SDS011;27638;42.184;24.848;2023-04-10T11:56:39;8.40;;;5.05;;
41946;SDS011;27638;42.184;24.848;2023-04-10T11:59:06;6.40;;;4.13;;
41946;SDS011;27638;42.184;24.848;2023-04-10T12:01:34;4.95;;;3.72;;
41946;SDS011;27638;42.184;24.848;2023-04-10T12:04:05;4.53;;;3.03;;
41946;SDS011;27638;42.184;24.848;2023-04-10T12:06:47;3.85;;;2.67;;
41946;SDS011;27638;42.184;24.848;2023-04-10T12:09:14;4.22;;;2.75;;
41946;SDS011;27638;42.184;24.848;2023-04-10T12:11:54;3.17;;;2.47;;
41946;SDS011;27638;42.184;24.848;2023-04-10T12:14:33;3.15;;;2.50;;
41946;SDS011;27638;42.184;24.848;2023-04-10T12:17:04;3.35;;;2.65;;
41946;SDS011;27638;42.184;24.848;2023-04-10T12:19:31;3.13;;;2.80;;
41946;SDS011;27638;42.184;24.848;2023-04-10T12:21:58;3.50;;;2.70;;
41946;SDS011;27638;42.184;24.848;2023-04-10T12:24:44;3.45;;;2.28;;
41946;SDS011;27638;42.184;24.848;2023-04-10T12:27:23;4.72;;;2.60;;
41946;SDS011;27638;42.184;24.848;2023-04-10T12:29:52;3.58;;;2.30;;
41946;SDS011;27638;42.184;24.848;2023-04-10T12:32:19;2.55;;;2.35;;
41946;SDS011;27638;42.184;24.848;2023-04-10T12:34:48;4.35;;;3.05;;
41946;SDS011;27638;42.184;24.848;2023-04-10T12:37:15;4.38;;;3.30;;
41946;SDS011;27638;42.184;24.848;2023-04-10T12:39:41;3.60;;;2.65;;
41946;SDS011;27638;42.184;24.848;2023-04-10T12:42:13;5.38;;;2.92;;
41946;SDS011;27638;42.184;24.848;2023-04-10T12:44:52;3.80;;;2.75;;
41946;SDS011;27638;42.184;24.848;2023-04-10T12:47:25;4.03;;;2.45;;
41946;SDS011;27638;42.184;24.848;2023-04-10T12:50:08;3.85;;;2.78;;
41946;SDS011;27638;42.184;24.848;2023-04-10T12:52:36;3.47;;;2.70;;
41946;SDS011;27638;42.184;24.848;2023-04-10T12:55:09;2.88;;;2.45;;
41946;SDS011;27638;42.184;24.848;2023-04-10T13:00:03;4.25;;;2.42;;
41946;SDS011;27638;42.184;24.848;2023-04-10T13:02:29;3.72;;;2.60;;
41946;SDS011;27638;42.184;24.848;2023-04-10T13:04:55;4.50;;;2.90;;
41946;SDS011;27638;42.184;24.848;2023-04-10T13:07:20;4.03;;;3.13;;
41946;SDS011;27638;42.184;24.848;2023-04-10T13:09:46;5.35;;;3.08;;
41946;SDS011;27638;42.184;24.848;2023-04-10T13:12:11;4.40;;;2.97;;
41946;SDS011;27638;42.184;24.848;2023-04-10T13:14:37;6.63;;;3.15;;
41946;SDS011;27638;42.184;24.848;2023-04-10T13:17:03;3.95;;;2.50;;
41946;SDS011;27638;42.184;24.848;2023-04-10T13:19:28;4.28;;;3.25;;
41946;SDS011;27638;42.184;24.848;2023-04-10T13:21:53;4.95;;;3.67;;
41946;SDS011;27638;42.184;24.848;2023-04-10T13:24:19;6.45;;;4.63;;
41946;SDS011;27638;42.184;24.848;2023-04-10T13:26:44;5.15;;;3.92;;
41946;SDS011;27638;42.184;24.848;2023-04-10T13:29:11;5.72;;;3.75;;
41946;SDS011;27638;42.184;24.848;2023-04-10T13:31:36;5.10;;;3.38;;
41946;SDS011;27638;42.184;24.848;2023-04-10T13:34:02;3.90;;;3.28;;
41946;SDS011;27638;42.184;24.848;2023-04-10T13:36:27;4.57;;;3.33;;
41946;SDS011;27638;42.184;24.848;2023-04-10T13:38:53;4.60;;;3.42;;
41946;SDS011;27638;42.184;24.848;2023-04-10T13:41:18;7.50;;;4.13;;
41946;SDS011;27638;42.184;24.848;2023-04-10T13:43:44;5.45;;;3.50;;
41946;SDS011;27638;42.184;24.848;2023-04-10T13:46:10;6.22;;;3.25;;
41946;SDS011;27638;42.184;24.848;2023-04-10T13:48:35;5.93;;;3.65;;
41946;SDS011;27638;42.184;24.848;2023-04-10T13:51:05;4.45;;;3.70;;
41946;SDS011;27638;42.184;24.848;2023-04-10T13:53:31;4.68;;;3.70;;
41946;SDS011;27638;42.184;24.848;2023-04-10T13:55:57;4.30;;;3.58;;
41946;SDS011;27638;42.184;24.848;2023-04-10T13:58:22;5.53;;;3.42;;
41946;SDS011;27638;42.184;24.848;2023-04-10T14:00:50;5.32;;;3.53;;
41946;SDS011;27638;42.184;24.848;2023-04-10T14:03:15;3.95;;;3.28;;
41946;SDS011;27638;42.184;24.848;2023-04-10T14:05:40;4.88;;;3.58;;
41946;SDS011;27638;42.184;24.848;2023-04-10T14:08:06;7.60;;;3.83;;
41946;SDS011;27638;42.184;24.848;2023-04-10T14:10:35;5.90;;;3.30;;
41946;SDS011;27638;42.184;24.848;2023-04-10T14:13:03;4.20;;;3.38;;
41946;SDS011;27638;42.184;24.848;2023-04-10T14:15:29;4.35;;;3.30;;
41946;SDS011;27638;42.184;24.848;2023-04-10T14:17:54;4.65;;;3.70;;
41946;SDS011;27638;42.184;24.848;2023-04-10T14:20:20;5.40;;;3.78;;
41946;SDS011;27638;42.184;24.848;2023-04-10T14:22:45;5.45;;;4.38;;
41946;SDS011;27638;42.184;24.848;2023-04-10T14:25:11;5.28;;;3.55;;
41946;SDS011;27638;42.184;24.848;2023-04-10T14:27:39;3.75;;;3.30;;
41946;SDS011;27638;42.184;24.848;2023-04-10T14:30:06;4.75;;;3.78;;
41946;SDS011;27638;42.184;24.848;2023-04-10T14:32:32;3.63;;;3.03;;
41946;SDS011;27638;42.184;24.848;2023-04-10T14:34:58;4.28;;;3.30;;
41946;SDS011;27638;42.184;24.848;2023-04-10T14:37:23;3.80;;;3.40;;
41946;SDS011;27638;42.184;24.848;2023-04-10T14:39:49;4.30;;;2.88;;
41946;SDS011;27638;42.184;24.848;2023-04-10T14:42:14;4.50;;;3.08;;
41946;SDS011;27638;42.184;24.848;2023-04-10T14:44:40;4.30;;;3.10;;
41946;SDS011;27638;42.184;24.848;2023-04-10T14:47:05;3.95;;;2.90;;
41946;SDS011;27638;42.184;24.848;2023-04-10T14:49:32;5.38;;;3.47;;
41946;SDS011;27638;42.184;24.848;2023-04-10T14:51:57;3.65;;;2.83;;
41946;SDS011;27638;42.184;24.848;2023-04-10T14:54:23;4.15;;;2.60;;
41946;SDS011;27638;42.184;24.848;2023-04-10T14:56:48;4.13;;;2.53;;
41946;SDS011;27638;42.184;24.848;2023-04-10T14:59:15;5.78;;;3.83;;
41946;SDS011;27638;42.184;24.848;2023-04-10T15:01:41;4.63;;;3.33;;
41946;SDS011;27638;42.184;24.848;2023-04-10T15:04:06;4.97;;;3.58;;
41946;SDS011;27638;42.184;24.848;2023-04-10T15:06:32;4.43;;;2.78;;
41946;SDS011;27638;42.184;24.848;2023-04-10T15:08:58;4.70;;;3.28;;
41946;SDS011;27638;42.184;24.848;2023-04-10T15:11:24;6.32;;;3.97;;
41946;SDS011;27638;42.184;24.848;2023-04-10T15:13:50;3.95;;;2.88;;
41946;SDS011;27638;42.184;24.848;2023-04-10T15:16:15;3.20;;;2.55;;
41946;SDS011;27638;42.184;24.848;2023-04-10T15:18:41;3.92;;;2.50;;
41946;SDS011;27638;42.184;24.848;2023-04-10T15:21:07;4.65;;;3.38;;
41946;SDS011;27638;42.184;24.848;2023-04-10T15:23:32;4.32;;;2.75;;
41946;SDS011;27638;42.184;24.848;2023-04-10T15:25:58;4.10;;;2.80;;